createdAt,value
2018-12-26T00:00:21.657Z,4.83
2018-12-26T00:02:51.183Z,3.80
2018-12-26T00:05:20.332Z,3.60
2018-12-26T00:07:48.650Z,3.30
2018-12-26T00:10:17.635Z,3.27
2018-12-26T00:12:46.328Z,3.00
2018-12-26T00:15:15.417Z,3.35
2018-12-26T00:17:44.516Z,3.05
2018-12-26T00:20:13.627Z,3.60
2018-12-26T00:22:42.309Z,4.12
2018-12-26T00:25:11.481Z,2.95
2018-12-26T00:27:40.302Z,3.95
2018-12-26T00:30:08.993Z,4.37
2018-12-26T00:32:37.278Z,4.35
2018-12-26T00:35:05.950Z,4.53
2018-12-26T00:37:35.068Z,5.40
2018-12-26T00:40:04.174Z,5.15
2018-12-26T00:42:33.258Z,5.60
2018-12-26T00:45:02.366Z,5.37
2018-12-26T00:47:31.057Z,5.33
2018-12-26T00:50:00.157Z,5.37
2018-12-26T00:52:28.829Z,4.80
2018-12-26T00:54:57.534Z,4.87
2018-12-26T00:57:26.631Z,4.78
2018-12-26T00:59:55.733Z,4.15
2018-12-26T01:02:24.858Z,3.95
2018-12-26T01:04:53.104Z,5.10
2018-12-26T01:07:22.200Z,4.42
2018-12-26T01:09:50.498Z,5.10
2018-12-26T01:12:19.199Z,5.20
2018-12-26T01:14:48.298Z,4.85
2018-12-26T01:17:17.374Z,4.55
2018-12-26T01:19:46.084Z,4.58
2018-12-26T01:22:15.282Z,4.85
2018-12-26T01:24:43.550Z,5.22
2018-12-26T01:27:12.240Z,4.85
2018-12-26T01:29:40.936Z,4.25
2018-12-26T01:32:09.639Z,4.58
2018-12-26T01:34:38.934Z,4.85
2018-12-26T01:37:07.951Z,4.75
2018-12-26T01:39:36.718Z,4.87
2018-12-26T01:42:05.832Z,4.78
2018-12-26T01:44:34.519Z,4.90
2018-12-26T01:47:03.713Z,4.72
2018-12-26T01:49:31.990Z,5.42
2018-12-26T01:52:01.089Z,5.33
2018-12-26T01:54:30.195Z,5.12
2018-12-26T01:56:58.872Z,5.05
2018-12-26T01:59:27.980Z,4.75
2018-12-26T02:01:56.255Z,4.70
2018-12-26T02:04:24.565Z,6.17
2018-12-26T02:06:53.451Z,4.80
2018-12-26T02:09:21.709Z,4.90
2018-12-26T02:11:50.812Z,5.45
2018-12-26T02:14:20.119Z,4.95
2018-12-26T02:16:48.924Z,4.87
2018-12-26T02:19:17.606Z,5.05
2018-12-26T02:21:46.285Z,5.60
2018-12-26T02:24:14.564Z,5.40
2018-12-26T02:26:43.252Z,4.50
2018-12-26T02:29:12.391Z,4.75
2018-12-26T02:31:40.744Z,4.87
2018-12-26T02:34:09.446Z,5.17
2018-12-26T02:36:38.536Z,4.95
2018-12-26T02:39:08.048Z,4.87
2018-12-26T02:41:36.732Z,3.95
2018-12-26T02:44:05.937Z,4.40
2018-12-26T02:46:34.647Z,4.95
2018-12-26T02:49:03.723Z,4.95
2018-12-26T02:51:32.719Z,4.35
2018-12-26T02:54:01.834Z,4.70
2018-12-26T02:56:30.928Z,5.12
2018-12-26T02:58:59.195Z,4.03
2018-12-26T03:01:28.317Z,4.58
2018-12-26T03:03:56.994Z,4.85
2018-12-26T03:06:25.609Z,4.78
2018-12-26T03:08:53.964Z,4.97
2018-12-26T03:11:23.158Z,4.45
2018-12-26T03:13:51.860Z,4.53
2018-12-26T03:16:20.948Z,4.37
2018-12-26T03:18:50.055Z,4.45
2018-12-26T03:21:19.157Z,4.42
2018-12-26T03:23:48.858Z,4.10
2018-12-26T03:26:17.964Z,4.10
2018-12-26T03:28:47.070Z,4.05
2018-12-26T03:31:16.055Z,4.40
2018-12-26T03:33:44.347Z,4.47
2018-12-26T03:36:13.444Z,3.70
2018-12-26T03:38:42.128Z,3.98
2018-12-26T03:41:11.223Z,4.05
2018-12-26T03:43:40.331Z,4.22
2018-12-26T03:46:09.645Z,3.80
2018-12-26T03:48:38.710Z,3.37
2018-12-26T03:51:07.938Z,3.55
2018-12-26T03:53:36.623Z,4.10
2018-12-26T03:56:04.908Z,3.45
2018-12-26T03:58:33.626Z,4.33
2018-12-26T04:01:02.795Z,3.77
2018-12-26T04:03:31.070Z,3.70
2018-12-26T04:06:00.179Z,3.72
2018-12-26T04:08:29.911Z,3.45
2018-12-26T04:10:58.688Z,4.05
2018-12-26T04:13:27.885Z,4.15
2018-12-26T04:15:57.109Z,4.30
2018-12-26T04:18:26.199Z,3.85
2018-12-26T04:20:54.878Z,4.03
2018-12-26T04:23:23.662Z,4.03
2018-12-26T04:25:52.377Z,3.98
2018-12-26T04:28:21.051Z,4.53
2018-12-26T04:30:49.833Z,4.08
2018-12-26T04:33:18.532Z,5.20
2018-12-26T04:35:47.217Z,4.72
2018-12-26T04:38:15.911Z,4.85
2018-12-26T04:40:45.036Z,3.83
2018-12-26T04:43:13.294Z,4.72
2018-12-26T04:45:41.985Z,5.40
2018-12-26T04:48:11.085Z,4.78
2018-12-26T04:50:39.364Z,5.67
2018-12-26T04:53:08.460Z,5.50
2018-12-26T04:55:37.156Z,4.72
2018-12-26T04:58:06.273Z,5.00
2018-12-26T05:00:34.917Z,5.30
2018-12-26T05:03:03.631Z,4.53
2018-12-26T05:05:32.932Z,4.45
2018-12-26T05:08:02.038Z,4.35
2018-12-26T05:10:30.317Z,5.37
2018-12-26T05:12:58.701Z,4.03
2018-12-26T05:15:27.400Z,4.22
2018-12-26T05:17:56.388Z,4.60
2018-12-26T05:20:25.087Z,4.55
2018-12-26T05:22:53.749Z,4.35
2018-12-26T05:25:22.994Z,6.20
2018-12-26T05:27:51.964Z,3.90
2018-12-26T05:30:21.201Z,4.12
2018-12-26T05:32:49.846Z,4.00
2018-12-26T05:35:18.976Z,4.75
2018-12-26T05:37:48.665Z,5.10
2018-12-26T05:40:17.356Z,5.22
2018-12-26T05:42:45.652Z,4.78
2018-12-26T05:45:16.017Z,4.05
2018-12-26T05:47:45.275Z,5.20
2018-12-26T05:50:13.593Z,4.85
2018-12-26T05:52:42.343Z,4.83
2018-12-26T05:55:11.358Z,5.30
2018-12-26T05:57:43.027Z,5.25
2018-12-26T06:00:10.586Z,4.55
2018-12-26T06:02:39.263Z,5.53
2018-12-26T06:05:07.953Z,5.10
2018-12-26T06:07:37.046Z,6.30
2018-12-26T06:10:06.177Z,5.55
2018-12-26T06:12:35.254Z,5.33
2018-12-26T06:15:04.044Z,4.92
2018-12-26T06:17:33.136Z,4.85
2018-12-26T06:20:02.162Z,5.70
2018-12-26T06:22:31.360Z,5.45
2018-12-26T06:25:00.542Z,5.65
2018-12-26T06:27:29.235Z,4.50
2018-12-26T06:29:58.337Z,4.92
2018-12-26T06:32:27.435Z,5.12
2018-12-26T06:34:56.125Z,3.85
2018-12-26T06:37:24.831Z,4.40
2018-12-26T06:40:05.756Z,6.72
2018-12-26T06:42:34.482Z,7.60
2018-12-26T06:45:03.547Z,7.42
2018-12-26T06:47:31.863Z,7.53
2018-12-26T06:50:00.958Z,8.83
2018-12-26T06:52:29.754Z,8.33
2018-12-26T06:54:58.781Z,8.93
2018-12-26T06:57:27.565Z,8.60
2018-12-26T06:59:56.224Z,7.72
2018-12-26T07:02:25.331Z,7.55
2018-12-26T07:04:54.031Z,8.00
2018-12-26T07:07:23.116Z,8.03
2018-12-26T07:09:51.410Z,6.50
2018-12-26T07:12:20.088Z,8.78
2018-12-26T07:14:49.198Z,9.65
2018-12-26T07:17:17.882Z,11.05
2018-12-26T07:19:46.165Z,9.38
2018-12-26T07:22:14.851Z,8.53
2018-12-26T07:24:44.050Z,10.88
2018-12-26T07:27:13.259Z,8.40
2018-12-26T07:29:42.056Z,8.08
2018-12-26T07:32:11.147Z,7.83
2018-12-26T07:34:42.265Z,7.92
2018-12-26T07:37:11.091Z,7.72
2018-12-26T07:39:39.785Z,7.75
2018-12-26T07:42:09.933Z,8.00
2018-12-26T07:44:38.690Z,8.18
2018-12-26T07:47:07.381Z,8.73
2018-12-26T07:49:36.478Z,7.58
2018-12-26T07:52:05.586Z,8.93
2018-12-26T07:54:34.682Z,6.72
2018-12-26T07:57:03.392Z,8.68
2018-12-26T07:59:37.546Z,7.85
2018-12-26T08:02:02.704Z,8.48
2018-12-26T08:04:31.794Z,9.45
2018-12-26T08:07:00.891Z,8.45
2018-12-26T08:09:48.845Z,9.45
2018-12-26T08:12:18.444Z,13.03
2018-12-26T08:14:47.648Z,13.78
2018-12-26T08:17:16.447Z,20.20
2018-12-26T08:19:45.545Z,16.97
2018-12-26T08:22:14.655Z,12.43
2018-12-26T08:25:07.960Z,10.45
2018-12-26T08:27:36.604Z,10.58
2018-12-26T08:30:05.284Z,8.95
2018-12-26T08:32:34.082Z,8.53
2018-12-26T08:35:02.794Z,8.05
2018-12-26T08:37:31.571Z,8.65
2018-12-26T08:40:00.281Z,9.00
2018-12-26T08:42:28.963Z,8.30
2018-12-26T08:44:57.643Z,8.78
2018-12-26T08:47:26.736Z,9.53
2018-12-26T08:49:55.840Z,8.15
2018-12-26T08:52:24.120Z,7.67
2018-12-26T08:54:52.808Z,7.35
2018-12-26T08:57:21.919Z,9.08
2018-12-26T08:59:51.002Z,8.03
2018-12-26T09:02:20.107Z,8.35
2018-12-26T09:04:49.415Z,7.20
2018-12-26T09:07:19.122Z,7.78
2018-12-26T09:09:47.020Z,8.33
2018-12-26T09:12:16.113Z,8.30
2018-12-26T09:14:45.206Z,7.50
2018-12-26T09:17:14.322Z,8.70
2018-12-26T09:19:43.393Z,7.85
2018-12-26T09:22:12.197Z,7.78
2018-12-26T09:24:41.286Z,8.73
2018-12-26T09:27:11.516Z,9.13
2018-12-26T09:29:40.345Z,9.25
2018-12-26T09:32:09.111Z,7.67
2018-12-26T09:34:37.365Z,8.45
2018-12-26T09:37:05.709Z,8.50
2018-12-26T09:39:34.763Z,8.50
2018-12-26T09:42:03.950Z,8.93
2018-12-26T09:44:32.641Z,8.90
2018-12-26T09:47:01.440Z,8.43
2018-12-26T09:49:30.535Z,8.40
2018-12-26T09:51:58.822Z,7.97
2018-12-26T09:54:27.905Z,8.50
2018-12-26T09:56:57.022Z,10.18
2018-12-26T09:59:25.300Z,11.50
2018-12-26T10:01:54.473Z,10.90
2018-12-26T10:04:23.203Z,9.68
2018-12-26T10:06:52.308Z,9.35
2018-12-26T10:09:21.419Z,10.20
2018-12-26T10:11:49.693Z,8.00
2018-12-26T10:14:18.767Z,9.28
2018-12-26T10:16:47.867Z,9.65
2018-12-26T10:19:16.153Z,8.83
2018-12-26T10:21:44.837Z,8.40
2018-12-26T10:24:13.159Z,7.60
2018-12-26T10:26:41.403Z,8.10
2018-12-26T10:29:10.189Z,8.80
2018-12-26T10:31:39.294Z,7.85
2018-12-26T10:34:08.086Z,8.90
2018-12-26T10:36:37.188Z,9.73
2018-12-26T10:39:07.212Z,9.70
2018-12-26T10:41:35.995Z,8.35
2018-12-26T10:44:04.678Z,8.18
2018-12-26T10:46:33.399Z,8.85
2018-12-26T10:49:02.064Z,8.40
2018-12-26T10:51:30.763Z,8.08
2018-12-26T10:53:59.080Z,7.65
2018-12-26T10:56:28.153Z,9.03
2018-12-26T10:58:56.828Z,8.53
2018-12-26T11:01:25.880Z,8.00
2018-12-26T11:03:54.877Z,8.80
2018-12-26T11:06:23.935Z,7.40
2018-12-26T11:08:52.608Z,9.18
2018-12-26T11:11:21.708Z,7.45
2018-12-26T11:13:51.014Z,7.28
2018-12-26T11:16:19.718Z,8.33
2018-12-26T11:18:49.215Z,7.20
2018-12-26T11:21:17.941Z,7.35
2018-12-26T11:23:47.027Z,6.70
2018-12-26T11:26:16.102Z,6.37
2018-12-26T11:28:44.806Z,6.92
2018-12-26T11:31:13.176Z,7.08
2018-12-26T11:33:42.279Z,7.58
2018-12-26T11:36:10.613Z,7.58
2018-12-26T11:38:39.347Z,7.78
2018-12-26T11:41:08.463Z,7.62
2018-12-26T11:43:37.127Z,6.95
2018-12-26T11:46:05.846Z,7.58
2018-12-26T11:48:35.026Z,6.35
2018-12-26T11:51:04.123Z,8.88
2018-12-26T11:53:32.818Z,8.13
2018-12-26T11:56:01.917Z,7.35
2018-12-26T11:58:30.615Z,7.28
2018-12-26T12:00:58.999Z,7.17
2018-12-26T12:03:27.684Z,7.65
2018-12-26T12:05:55.952Z,7.87
2018-12-26T12:08:25.066Z,7.60
2018-12-26T12:10:54.166Z,8.50
2018-12-26T12:13:22.875Z,7.05
2018-12-26T12:15:51.537Z,7.90
2018-12-26T12:18:20.747Z,8.73
2018-12-26T12:20:49.877Z,9.00
2018-12-26T12:23:19.058Z,7.65
2018-12-26T12:25:48.199Z,7.53
2018-12-26T12:28:17.344Z,7.85
2018-12-26T12:30:46.465Z,8.48
2018-12-26T12:33:15.569Z,7.80
2018-12-26T12:35:44.651Z,7.75
2018-12-26T12:38:13.465Z,8.60
2018-12-26T12:40:42.125Z,7.85
2018-12-26T12:43:11.250Z,8.70
2018-12-26T12:45:39.955Z,8.15
2018-12-26T12:48:09.042Z,7.42
2018-12-26T12:50:37.398Z,8.18
2018-12-26T12:53:06.606Z,7.90
2018-12-26T12:55:35.715Z,8.10
2018-12-26T12:58:04.406Z,8.55
2018-12-26T13:00:33.204Z,8.05
2018-12-26T13:03:01.082Z,8.95
2018-12-26T13:05:30.189Z,8.78
2018-12-26T13:07:59.271Z,8.03
2018-12-26T13:10:28.354Z,8.58
2018-12-26T13:12:57.044Z,9.65
2018-12-26T13:15:26.352Z,8.35
2018-12-26T13:17:55.551Z,8.78
2018-12-26T13:20:24.418Z,9.25
2018-12-26T13:22:53.546Z,9.55
2018-12-26T13:25:22.427Z,8.88
2018-12-26T13:27:51.560Z,10.15
2018-12-26T13:30:20.332Z,9.40
2018-12-26T13:32:49.431Z,9.68
2018-12-26T13:35:18.536Z,13.70
2018-12-26T13:37:47.324Z,13.90
2018-12-26T13:40:16.034Z,14.00
2018-12-26T13:42:44.726Z,13.85
2018-12-26T13:45:14.826Z,12.18
2018-12-26T13:47:43.535Z,12.68
2018-12-26T13:50:12.619Z,12.00
2018-12-26T13:52:41.308Z,11.55
2018-12-26T13:55:10.496Z,11.35
2018-12-26T13:57:39.220Z,11.28
2018-12-26T14:00:08.941Z,12.00
2018-12-26T14:02:37.607Z,12.43
2018-12-26T14:05:05.930Z,13.05
2018-12-26T14:07:34.478Z,14.45
2018-12-26T14:10:03.153Z,11.50
2018-12-26T14:12:31.854Z,12.55
2018-12-26T14:15:00.582Z,12.82
2018-12-26T14:17:30.783Z,13.55
2018-12-26T14:19:59.872Z,12.03
2018-12-26T14:22:28.919Z,12.10
2018-12-26T14:24:57.681Z,11.35
2018-12-26T14:27:29.510Z,12.03
2018-12-26T14:29:57.818Z,12.00
2018-12-26T14:32:26.600Z,11.70
2018-12-26T14:34:55.411Z,11.10
2018-12-26T14:37:24.489Z,12.00
2018-12-26T14:39:52.771Z,12.40
2018-12-26T14:42:21.509Z,11.90
2018-12-26T14:44:50.616Z,11.65
2018-12-26T14:47:19.874Z,13.38
2018-12-26T14:49:48.576Z,12.53
2018-12-26T14:52:17.375Z,12.93
2018-12-26T14:54:46.440Z,12.15
2018-12-26T14:57:15.133Z,12.78
2018-12-26T14:59:43.953Z,13.53
2018-12-26T15:02:13.031Z,13.20
2018-12-26T15:04:42.246Z,12.28
2018-12-26T15:07:11.064Z,12.75
2018-12-26T15:09:40.455Z,11.83
2018-12-26T15:12:09.217Z,11.55
2018-12-26T15:14:38.255Z,12.20
2018-12-26T15:17:07.012Z,12.33
2018-12-26T15:19:36.113Z,11.33
2018-12-26T15:22:05.241Z,13.03
2018-12-26T15:24:34.262Z,12.75
2018-12-26T15:27:03.355Z,13.03
2018-12-26T15:29:32.424Z,12.73
2018-12-26T15:32:01.209Z,12.63
2018-12-26T15:34:30.301Z,13.13
2018-12-26T15:36:59.127Z,13.45
2018-12-26T15:39:28.210Z,14.40
2018-12-26T15:41:57.394Z,15.05
2018-12-26T15:44:26.732Z,14.53
2018-12-26T15:46:55.895Z,13.93
2018-12-26T15:49:25.039Z,11.83
2018-12-26T15:51:53.672Z,13.85
2018-12-26T15:54:22.809Z,13.35
2018-12-26T15:56:51.904Z,12.47
2018-12-26T15:59:20.192Z,13.13
2018-12-26T16:01:49.267Z,12.20
2018-12-26T16:04:18.404Z,12.40
2018-12-26T16:06:47.176Z,12.70
2018-12-26T16:09:15.958Z,11.83
2018-12-26T16:11:45.171Z,11.45
2018-12-26T16:14:14.351Z,12.53
2018-12-26T16:16:43.479Z,11.50
2018-12-26T16:19:12.148Z,12.10
2018-12-26T16:22:05.930Z,9.25
2018-12-26T16:24:34.734Z,9.83
2018-12-26T16:27:03.808Z,10.20
2018-12-26T16:29:32.515Z,13.68
2018-12-26T16:32:01.225Z,10.28
2018-12-26T16:34:30.504Z,12.45
2018-12-26T16:36:59.192Z,10.45
2018-12-26T16:39:35.665Z,11.30
2018-12-26T16:41:59.345Z,11.03
2018-12-26T16:44:28.438Z,10.35
2018-12-26T16:46:57.228Z,11.05
2018-12-26T16:49:26.323Z,9.90
2018-12-26T16:51:54.660Z,11.78
2018-12-26T16:54:22.887Z,10.50
2018-12-26T16:56:51.283Z,9.18
2018-12-26T16:59:20.486Z,9.13
2018-12-26T17:01:49.185Z,9.88
2018-12-26T17:04:17.461Z,12.18
2018-12-26T17:06:48.573Z,10.40
2018-12-26T17:09:17.380Z,11.68
2018-12-26T17:11:45.239Z,10.40
2018-12-26T17:14:14.480Z,10.43
2018-12-26T17:16:42.746Z,10.63
2018-12-26T17:19:11.438Z,11.25
2018-12-26T17:21:39.720Z,13.03
2018-12-26T17:24:16.370Z,16.37
2018-12-26T17:26:39.760Z,13.10
2018-12-26T17:29:08.451Z,12.15
2018-12-26T17:31:37.122Z,12.37
2018-12-26T17:34:05.841Z,13.45
2018-12-26T17:36:34.507Z,12.13
2018-12-26T17:39:04.461Z,14.58
2018-12-26T17:41:33.138Z,13.53
2018-12-26T17:44:02.226Z,13.43
2018-12-26T17:46:30.903Z,12.07
2018-12-26T17:49:00.100Z,12.10
2018-12-26T17:51:29.205Z,13.80
2018-12-26T17:54:17.365Z,12.98
2018-12-26T17:56:50.793Z,13.65
2018-12-26T17:59:24.911Z,14.43
2018-12-26T18:02:19.062Z,16.62
2018-12-26T18:04:47.894Z,14.07
2018-12-26T18:07:18.080Z,14.25
2018-12-26T18:09:47.300Z,15.28
2018-12-26T18:12:15.981Z,15.65
2018-12-26T18:14:44.767Z,14.73
2018-12-26T18:17:13.887Z,14.43
2018-12-26T18:19:42.185Z,14.15
2018-12-26T18:22:11.247Z,16.93
2018-12-26T18:24:40.348Z,17.15
2018-12-26T18:27:09.135Z,16.02
2018-12-26T18:29:37.827Z,16.75
2018-12-26T18:32:06.110Z,19.02
2018-12-26T18:34:34.916Z,18.73
2018-12-26T18:37:04.130Z,17.87
2018-12-26T18:39:33.208Z,18.25
2018-12-26T18:42:01.999Z,16.02
2018-12-26T18:44:31.311Z,16.37
2018-12-26T18:47:00.103Z,17.73
2018-12-26T18:49:28.827Z,16.60
2018-12-26T18:51:57.471Z,17.90
2018-12-26T18:54:26.662Z,17.50
2018-12-26T18:56:55.873Z,17.60
2018-12-26T18:59:25.067Z,16.40
2018-12-26T19:01:55.856Z,16.80
2018-12-26T19:04:25.018Z,17.37
2018-12-26T19:06:53.207Z,16.97
2018-12-26T19:09:22.196Z,18.60
2018-12-26T19:11:50.903Z,16.80
2018-12-26T19:14:20.095Z,16.60
2018-12-26T19:16:48.895Z,17.77
2018-12-26T19:19:17.915Z,17.87
2018-12-26T19:21:46.995Z,17.98
2018-12-26T19:24:16.066Z,16.17
2018-12-26T19:26:44.767Z,16.45
2018-12-26T19:29:13.463Z,17.17
2018-12-26T19:31:41.760Z,15.00
2018-12-26T19:34:10.527Z,14.15
2018-12-26T19:36:39.207Z,15.40
2018-12-26T19:39:07.918Z,15.60
2018-12-26T19:41:37.124Z,14.38
2018-12-26T19:44:06.332Z,15.18
2018-12-26T19:46:34.706Z,14.70
2018-12-26T19:49:03.435Z,15.03
2018-12-26T19:51:32.582Z,15.20
2018-12-26T19:54:01.291Z,15.83
2018-12-26T19:56:30.331Z,17.62
2018-12-26T19:58:59.577Z,16.67
2018-12-26T20:01:28.775Z,18.30
2018-12-26T20:03:57.888Z,15.75
2018-12-26T20:06:26.572Z,15.08
2018-12-26T20:08:55.709Z,17.70
2018-12-26T20:11:24.358Z,19.10
2018-12-26T20:13:53.475Z,16.95
2018-12-26T20:16:22.656Z,15.93
2018-12-26T20:18:51.732Z,15.35
2018-12-26T20:21:20.514Z,14.10
2018-12-26T20:23:49.573Z,15.65
2018-12-26T20:26:18.745Z,17.20
2018-12-26T20:28:47.944Z,15.45
2018-12-26T20:31:16.742Z,16.42
2018-12-26T20:33:45.531Z,17.27
2018-12-26T20:36:14.243Z,16.05
2018-12-26T20:38:42.911Z,15.35
2018-12-26T20:41:11.722Z,12.93
2018-12-26T20:43:40.501Z,13.80
2018-12-26T20:46:09.213Z,12.58
2018-12-26T20:48:37.474Z,14.50
2018-12-26T20:51:06.270Z,14.55
2018-12-26T20:53:35.364Z,16.10
2018-12-26T20:56:04.510Z,13.58
2018-12-26T20:58:33.280Z,13.18
2018-12-26T21:01:01.670Z,12.70
2018-12-26T21:03:30.734Z,12.85
2018-12-26T21:05:59.455Z,12.73
2018-12-26T21:08:28.231Z,12.73
2018-12-26T21:10:56.939Z,11.95
2018-12-26T21:13:26.243Z,12.75
2018-12-26T21:15:55.546Z,12.18
2018-12-26T21:18:49.428Z,13.45
2018-12-26T21:21:18.304Z,12.95
2018-12-26T21:23:48.023Z,13.98
2018-12-26T21:26:17.115Z,13.35
2018-12-26T21:28:46.822Z,12.55
2018-12-26T21:31:15.582Z,13.15
2018-12-26T21:33:44.423Z,12.50
2018-12-26T21:36:13.189Z,12.43
2018-12-26T21:38:41.887Z,12.03
2018-12-26T21:41:10.987Z,13.62
2018-12-26T21:43:39.796Z,13.10
2018-12-26T21:46:07.706Z,10.72
2018-12-26T21:48:36.744Z,11.73
2018-12-26T21:51:05.023Z,12.37
2018-12-26T21:53:33.824Z,13.13
2018-12-26T21:56:02.925Z,15.63
2018-12-26T21:58:31.611Z,16.20
2018-12-26T22:01:00.406Z,15.43
2018-12-26T22:03:28.742Z,15.35
2018-12-26T22:05:59.022Z,14.70
2018-12-26T22:08:27.802Z,13.60
2018-12-26T22:10:56.514Z,12.30
2018-12-26T22:13:25.209Z,11.28
2018-12-26T22:15:54.314Z,12.03
2018-12-26T22:18:23.001Z,12.73
2018-12-26T22:20:52.280Z,13.05
2018-12-26T22:23:21.390Z,11.18
2018-12-26T22:25:50.620Z,11.15
2018-12-26T22:28:19.801Z,11.75
2018-12-26T22:30:49.004Z,12.93
2018-12-26T22:33:17.780Z,12.13
2018-12-26T22:35:46.578Z,12.10
2018-12-26T22:38:15.609Z,11.85
2018-12-26T22:40:44.256Z,12.18
2018-12-26T22:43:13.355Z,12.75
2018-12-26T22:45:44.088Z,13.13
2018-12-26T22:48:13.512Z,12.70
2018-12-26T22:50:43.216Z,12.90
2018-12-26T22:53:12.517Z,10.10
2018-12-26T22:55:41.206Z,11.55
2018-12-26T22:58:10.024Z,11.00
2018-12-26T23:00:43.237Z,10.53
2018-12-26T23:03:11.986Z,11.93
2018-12-26T23:05:40.355Z,13.53
2018-12-26T23:08:09.466Z,16.25
2018-12-26T23:10:38.162Z,16.30
2018-12-26T23:13:06.056Z,16.30
2018-12-26T23:15:34.317Z,18.32
2018-12-26T23:18:03.411Z,17.82
2018-12-26T23:20:31.699Z,19.70
2018-12-26T23:23:00.793Z,17.82
2018-12-26T23:25:29.895Z,16.48
2018-12-26T23:27:58.592Z,17.37
2018-12-26T23:30:27.299Z,18.02
2018-12-26T23:32:55.563Z,16.95
2018-12-26T23:35:24.661Z,17.20
2018-12-26T23:37:53.451Z,16.45
2018-12-26T23:40:22.443Z,18.15
2018-12-26T23:42:50.720Z,18.37
2018-12-26T23:45:19.441Z,21.80
2018-12-26T23:47:48.510Z,17.15
2018-12-26T23:50:17.618Z,19.48
2018-12-26T23:52:45.907Z,16.00
2018-12-26T23:55:14.316Z,19.73
2018-12-26T23:57:42.971Z,19.98
